Yuxi, Yunnan

2:12 PM CST on October 26, 2014 (GMT +0800)
Wujiaba | Change Station
CLOSE
Current Station
Airport
Location: Kunming,
Elevation: 6214 ft
Nearby Weather Stations

Elev 6214 ft 25.00 °N, 102.74 °E | Updated 12 minutes ago

Scattered Clouds
Scattered Clouds
68 °F
Feels Like 68 °F
N
7
Wind Variable Wind from SSW

Today
High -- | Low -- °F
--% Chance of Precip.
Yesterday
High -- | Low -- °F
Precip. -- in
7:12 AM 6:34 PM
Waxing Crescent, 6% visible
Pressure 30.30 in
Visibility 6.2 miles
Clouds Scattered Clouds 2300 ft
Dew Point 45 °F
Humidity 43%
Rainfall 0.00 in
Snow Depth Not available.
UV 9 out of 12
Pollen Not available.
Air Quality Not available.
Flu Activity Not available.
METAR ZPPP 260600Z 21003MPS 140V270 9999 SCT023 20/07 Q1026 NOSIG

More Conditions Fewer Conditions

Pressure 30.30 in
Visibility 6.2 miles
Clouds Scattered Clouds 2300 ft
Dew Point 45 °F
Humidity 43%
Rainfall 0.00 in
Snow Depth Not available.
UV 9 out of 12
Pollen Not available.
Air Quality Not available.
Flu Activity Not available.
METAR ZPPP 260600Z 21003MPS 140V270 9999 SCT023 20/07 Q1026 NOSIG

More Conditions Fewer Conditions

10-Day Weather Forecast

Almanac

Astronomy

Oct. 26, 2014 Rise Set
Actual Time 7:12 AM CST 6:34 PM CST
Civil Twilight 6:49 AM CST 6:57 PM CST
Nautical Twilight 6:22 AM CST 7:24 PM CST
Astronomical Twilight 5:56 AM CST 7:50 PM CST
Moon 9:10 AM CST 8:29 PM CST
Length of Visible Light 12h 07m
Length of Day
11h 21m
Tomorrow will be 1m 17s shorter.
Waxing Crescent, 6% of the Moon is Illuminated
Today
Waxing Crescent
Oct 30
First Quarter
Nov 6
Full
Nov 14
Last Quarter
Nov 22
New

Yesterday's Extremes

Country Highs Country Lows

Community

WunderPhotos

Upload Photos

1,765,113 photos uploaded!

Nearby

Snow Depth

Not available.

Earthquake Activity

City Distance Mag. Time & Date
No recent earthquake activity has been reported nearby.
Minimum magnitude displayed is 2.5.

Coastal Water Temperatures

Place Temperature
No Stations Reporting

Nearby Weather Stations